createdAt,value
2022-10-24T00:01:36.150Z,4.25
2022-10-24T00:06:35.040Z,4.53
2022-10-24T00:09:03.614Z,5.10
2022-10-24T00:11:31.550Z,5.57
2022-10-24T00:13:59.925Z,5.10
2022-10-24T00:16:31.001Z,4.13
2022-10-24T00:18:58.925Z,3.47
2022-10-24T00:21:26.847Z,4.45
2022-10-24T00:23:56.121Z,3.72
2022-10-24T00:26:24.022Z,3.38
2022-10-24T00:28:52.005Z,3.85
2022-10-24T00:31:20.685Z,3.72
2022-10-24T00:33:48.816Z,4.38
2022-10-24T00:36:19.224Z,4.65
2022-10-24T00:38:47.491Z,4.43
2022-10-24T00:41:17.985Z,4.53
2022-10-24T00:43:46.347Z,3.83
2022-10-24T00:46:15.441Z,3.88
2022-10-24T00:48:47.846Z,3.13
2022-10-24T00:51:24.433Z,2.97
2022-10-24T00:56:36.782Z,3.25
2022-10-24T00:59:08.271Z,3.67
2022-10-24T01:01:36.958Z,4.90
2022-10-24T01:04:05.384Z,4.90
2022-10-24T01:06:48.239Z,4.13
2022-10-24T01:09:28.720Z,3.47
2022-10-24T01:12:07.385Z,4.18
2022-10-24T01:14:45.660Z,3.65
2022-10-24T01:17:18.316Z,3.90
2022-10-24T01:20:16.853Z,4.90
2022-10-24T01:22:55.951Z,4.60
2022-10-24T01:25:34.927Z,3.65
2022-10-24T01:28:08.520Z,3.92
2022-10-24T01:30:44.086Z,3.67
2022-10-24T01:33:19.539Z,3.85
2022-10-24T01:35:54.356Z,4.05
2022-10-24T01:38:27.808Z,4.20
2022-10-24T01:41:01.167Z,5.32
2022-10-24T01:43:31.338Z,3.00
2022-10-24T01:46:04.225Z,4.07
2022-10-24T01:48:36.975Z,2.50
2022-10-24T01:51:07.225Z,2.78
2022-10-24T01:53:37.051Z,3.05
2022-10-24T01:56:06.733Z,2.50
2022-10-24T01:58:34.822Z,2.80
2022-10-24T02:01:09.014Z,4.65
2022-10-24T02:03:39.665Z,5.50
2022-10-24T02:06:11.506Z,5.13
2022-10-24T02:08:44.177Z,2.95
2022-10-24T02:11:12.539Z,3.90
2022-10-24T02:13:46.145Z,3.03
2022-10-24T02:16:19.691Z,2.92
2022-10-24T02:18:48.502Z,3.17
2022-10-24T02:21:22.894Z,2.85
2022-10-24T02:23:56.137Z,2.83
2022-10-24T02:26:31.323Z,2.80
2022-10-24T02:29:02.603Z,3.08
2022-10-24T02:31:36.534Z,4.53
2022-10-24T02:34:06.828Z,2.35
2022-10-24T02:36:37.015Z,2.70
2022-10-24T02:39:08.470Z,2.38
2022-10-24T02:41:38.518Z,3.65
2022-10-24T02:44:08.066Z,2.67
2022-10-24T02:46:38.225Z,3.00
2022-10-24T02:49:06.788Z,2.90
2022-10-24T02:51:37.984Z,4.10
2022-10-24T02:54:06.331Z,3.40
2022-10-24T02:56:36.161Z,3.28
2022-10-24T02:59:04.535Z,3.88
2022-10-24T03:01:32.587Z,3.70
2022-10-24T03:04:02.001Z,3.10
2022-10-24T03:06:29.951Z,3.15
2022-10-24T03:08:57.967Z,3.15
2022-10-24T03:11:25.913Z,3.03
2022-10-24T03:13:53.898Z,2.80
2022-10-24T03:16:21.907Z,3.08
2022-10-24T03:18:49.852Z,2.75
2022-10-24T03:21:19.105Z,2.53
2022-10-24T03:23:47.188Z,2.53
2022-10-24T03:26:15.343Z,2.95
2022-10-24T03:28:43.272Z,3.30
2022-10-24T03:31:11.223Z,3.33
2022-10-24T03:33:39.181Z,2.70
2022-10-24T03:36:07.570Z,2.03
2022-10-24T03:38:36.868Z,26.42
2022-10-24T03:41:05.156Z,7.07
2022-10-24T03:43:33.062Z,2.53
2022-10-24T03:46:00.992Z,3.92
2022-10-24T03:48:29.138Z,5.38
2022-10-24T03:50:57.080Z,4.70
2022-10-24T03:53:25.020Z,4.35
2022-10-24T03:55:54.894Z,3.75
2022-10-24T03:58:22.800Z,3.40
2022-10-24T04:00:50.977Z,3.65
2022-10-24T04:03:19.141Z,3.47
2022-10-24T04:05:47.097Z,3.03
2022-10-24T04:08:15.021Z,4.13
2022-10-24T04:10:42.958Z,3.45
2022-10-24T04:13:12.392Z,3.00
2022-10-24T04:15:40.374Z,3.42
2022-10-24T04:18:09.680Z,3.20
2022-10-24T04:20:37.876Z,3.30
2022-10-24T04:23:05.941Z,3.15
2022-10-24T04:25:33.924Z,3.80
2022-10-24T04:28:02.961Z,3.53
2022-10-24T04:30:32.395Z,4.43
2022-10-24T04:33:00.394Z,8.75
2022-10-24T04:35:28.638Z,5.53
2022-10-24T04:37:56.599Z,6.15
2022-10-24T04:40:24.551Z,6.93
2022-10-24T04:42:52.482Z,8.98
2022-10-24T04:45:20.422Z,18.13
2022-10-24T04:47:49.759Z,16.60
2022-10-24T04:50:17.759Z,16.45
2022-10-24T04:52:45.681Z,18.17
2022-10-24T04:55:13.627Z,15.82
2022-10-24T04:57:41.540Z,15.35
2022-10-24T05:00:10.570Z,14.63
2022-10-24T05:02:38.629Z,16.60
2022-10-24T05:05:08.856Z,15.95
2022-10-24T05:07:36.991Z,15.20
2022-10-24T05:10:05.413Z,14.13
2022-10-24T05:12:33.406Z,11.43
2022-10-24T05:15:01.395Z,11.95
2022-10-24T05:17:29.395Z,12.65
2022-10-24T05:19:57.378Z,12.25
2022-10-24T05:22:26.957Z,11.40
2022-10-24T05:24:54.865Z,11.02
2022-10-24T05:27:24.729Z,11.10
2022-10-24T05:29:55.513Z,10.75
2022-10-24T05:32:24.549Z,9.38
2022-10-24T05:34:52.887Z,9.30
2022-10-24T05:37:20.889Z,8.52
2022-10-24T05:39:50.232Z,10.23
2022-10-24T05:42:18.692Z,8.82
2022-10-24T05:44:46.764Z,10.15
2022-10-24T05:47:14.747Z,13.13
2022-10-24T05:49:42.807Z,9.43
2022-10-24T05:52:10.697Z,14.20
2022-10-24T05:54:48.793Z,31.92
2022-10-24T05:57:28.215Z,23.85
2022-10-24T05:59:56.118Z,20.52
2022-10-24T06:02:24.168Z,18.42
2022-10-24T06:04:52.229Z,15.75
2022-10-24T06:07:20.282Z,16.08
2022-10-24T06:09:48.265Z,14.45
2022-10-24T06:12:16.530Z,14.70
2022-10-24T06:14:45.821Z,14.35
2022-10-24T06:17:13.772Z,11.45
2022-10-24T06:19:42.115Z,12.23
2022-10-24T06:22:10.418Z,10.85
2022-10-24T06:24:39.283Z,9.80
2022-10-24T06:27:07.813Z,7.40
2022-10-24T06:29:36.543Z,6.13
2022-10-24T06:32:06.113Z,6.05
2022-10-24T06:34:33.991Z,6.78
2022-10-24T06:37:02.231Z,7.68
2022-10-24T06:39:30.330Z,4.82
2022-10-24T06:41:58.214Z,5.43
2022-10-24T06:44:27.418Z,6.10
2022-10-24T06:46:55.372Z,5.60
2022-10-24T06:49:24.610Z,6.72
2022-10-24T06:51:52.533Z,6.47
2022-10-24T06:54:25.271Z,7.40
2022-10-24T06:56:55.716Z,7.80
2022-10-24T06:59:23.656Z,6.35
2022-10-24T07:01:51.830Z,6.55
2022-10-24T07:04:20.356Z,6.45
2022-10-24T07:06:49.571Z,7.80
2022-10-24T07:09:18.063Z,8.48
2022-10-24T07:11:46.581Z,7.97
2022-10-24T07:14:14.603Z,7.78
2022-10-24T07:16:42.542Z,9.20
2022-10-24T07:19:11.621Z,8.82
2022-10-24T07:21:39.664Z,8.65
2022-10-24T07:24:09.443Z,8.80
2022-10-24T07:26:37.383Z,9.10
2022-10-24T07:29:05.383Z,8.80
2022-10-24T07:31:36.656Z,9.40
2022-10-24T07:34:07.444Z,9.48
2022-10-24T07:36:38.902Z,9.60
2022-10-24T07:39:13.121Z,10.10
2022-10-24T07:41:42.094Z,9.30
2022-10-24T07:44:10.825Z,10.85
2022-10-24T07:46:39.489Z,10.85
2022-10-24T07:49:08.854Z,11.23
2022-10-24T07:51:36.848Z,12.90
2022-10-24T07:54:05.188Z,11.25
2022-10-24T07:56:34.611Z,7.93
2022-10-24T07:59:09.044Z,9.73
2022-10-24T08:01:37.798Z,10.98
2022-10-24T08:04:05.988Z,11.40
2022-10-24T08:06:35.158Z,9.55
2022-10-24T08:09:03.435Z,12.32
2022-10-24T08:11:32.664Z,9.77
2022-10-24T08:14:03.067Z,10.32
2022-10-24T08:16:31.061Z,11.05
2022-10-24T08:18:59.734Z,10.80
2022-10-24T08:21:27.833Z,9.20
2022-10-24T08:23:56.128Z,9.15
2022-10-24T08:26:26.055Z,9.32
2022-10-24T08:28:55.219Z,7.68
2022-10-24T08:31:26.121Z,8.85
2022-10-24T08:33:55.374Z,7.78
2022-10-24T08:36:26.819Z,8.15
2022-10-24T08:38:54.943Z,7.40
2022-10-24T08:41:29.925Z,6.60
2022-10-24T08:44:00.570Z,6.50
2022-10-24T08:46:48.855Z,6.55
2022-10-24T08:49:25.440Z,6.28
2022-10-24T08:51:58.562Z,5.70
2022-10-24T08:54:32.038Z,6.03
2022-10-24T08:57:01.975Z,5.40
2022-10-24T08:59:33.345Z,5.30
2022-10-24T09:02:10.057Z,5.82
2022-10-24T09:04:44.978Z,5.03
2022-10-24T09:07:19.517Z,4.88
2022-10-24T09:09:51.024Z,4.47
2022-10-24T09:12:22.766Z,4.75
2022-10-24T09:14:56.640Z,4.90
2022-10-24T09:17:31.182Z,3.97
2022-10-24T09:20:01.613Z,4.68
2022-10-24T09:22:33.004Z,4.70
2022-10-24T09:25:04.455Z,4.32
2022-10-24T09:27:36.249Z,3.75
2022-10-24T09:30:06.457Z,4.85
2022-10-24T09:32:37.629Z,3.75
2022-10-24T09:35:07.781Z,3.97
2022-10-24T09:37:44.164Z,3.58
2022-10-24T09:40:22.016Z,3.40
2022-10-24T09:42:57.723Z,3.22
2022-10-24T09:45:47.211Z,3.33
2022-10-24T09:48:29.287Z,2.67
2022-10-24T09:51:00.439Z,3.47
2022-10-24T09:53:32.691Z,3.20
2022-10-24T09:56:03.008Z,3.28
2022-10-24T09:58:33.745Z,3.70
2022-10-24T10:01:05.082Z,3.28
2022-10-24T10:03:35.950Z,3.58
2022-10-24T10:06:15.253Z,3.38
2022-10-24T10:08:49.879Z,3.20
2022-10-24T10:11:26.429Z,2.88
2022-10-24T10:13:55.486Z,3.20
2022-10-24T10:16:26.503Z,3.22
2022-10-24T10:19:04.180Z,3.25
2022-10-24T10:21:55.519Z,2.95
2022-10-24T10:24:29.299Z,3.75
2022-10-24T10:26:57.265Z,4.00
2022-10-24T10:29:25.875Z,3.92
2022-10-24T10:31:59.568Z,3.80
2022-10-24T10:34:35.717Z,3.65
2022-10-24T10:37:22.925Z,4.18
2022-10-24T10:40:10.766Z,3.80
2022-10-24T10:42:50.350Z,3.70
2022-10-24T10:45:35.992Z,3.90
2022-10-24T10:48:25.217Z,3.85
2022-10-24T10:51:02.234Z,3.10
2022-10-24T10:53:40.217Z,3.92
2022-10-24T10:56:21.601Z,3.85
2022-10-24T10:59:05.313Z,3.72
2022-10-24T11:01:45.146Z,3.17
2022-10-24T11:04:21.435Z,3.53
2022-10-24T11:09:42.070Z,3.28
2022-10-24T11:12:17.034Z,2.80
2022-10-24T11:14:49.977Z,2.80
2022-10-24T11:17:23.043Z,2.72
2022-10-24T11:20:07.543Z,2.67
2022-10-24T11:22:41.327Z,2.90
2022-10-24T11:25:20.510Z,3.28
2022-10-24T11:27:53.384Z,2.40
2022-10-24T11:30:22.515Z,2.45
2022-10-24T11:32:54.758Z,1.80
2022-10-24T11:35:29.534Z,2.20
2022-10-24T11:38:03.176Z,2.28
2022-10-24T11:40:31.949Z,2.40
2022-10-24T11:43:14.557Z,2.13
2022-10-24T11:45:48.381Z,2.28
2022-10-24T11:48:22.076Z,1.67
2022-10-24T11:50:55.094Z,2.25
2022-10-24T11:53:45.804Z,2.50
2022-10-24T11:56:18.655Z,2.30
2022-10-24T11:58:57.361Z,2.20
2022-10-24T12:02:03.071Z,1.98
2022-10-24T12:04:51.759Z,2.10
2022-10-24T12:07:47.679Z,2.05
2022-10-24T12:10:55.409Z,2.50
2022-10-24T12:13:47.896Z,2.42
2022-10-24T12:16:27.095Z,1.85
2022-10-24T12:19:00.252Z,1.92
2022-10-24T12:21:39.632Z,2.38
2022-10-24T12:24:20.992Z,1.80
2022-10-24T12:26:58.052Z,2.20
2022-10-24T12:29:27.993Z,2.38
2022-10-24T12:31:56.086Z,2.00
2022-10-24T12:35:12.291Z,1.70
2022-10-24T12:37:46.978Z,2.03
2022-10-24T12:40:52.067Z,1.45
2022-10-24T12:43:34.425Z,1.73
2022-10-24T12:46:24.328Z,1.75
2022-10-24T12:49:19.048Z,1.40
2022-10-24T12:51:47.467Z,1.55
2022-10-24T12:54:18.054Z,1.73
2022-10-24T12:57:26.946Z,1.80
2022-10-24T12:59:58.938Z,1.85
2022-10-24T13:02:53.529Z,1.90
2022-10-24T13:05:39.472Z,1.90
2022-10-24T13:08:21.680Z,1.80
2022-10-24T13:10:59.935Z,2.22
2022-10-24T13:13:47.339Z,1.80
2022-10-24T13:16:26.311Z,1.63
2022-10-24T13:19:10.946Z,1.90
2022-10-24T13:21:48.020Z,1.98
2022-10-24T13:24:37.155Z,2.15
2022-10-24T13:27:27.716Z,1.50
2022-10-24T13:30:34.704Z,2.03
2022-10-24T13:33:42.417Z,1.90
2022-10-24T13:36:18.920Z,1.95
2022-10-24T13:38:51.959Z,2.10
2022-10-24T13:41:26.263Z,2.35
2022-10-24T13:43:57.863Z,1.85
2022-10-24T13:46:32.918Z,2.20
2022-10-24T13:49:04.197Z,2.40
2022-10-24T13:51:41.744Z,2.42
2022-10-24T13:54:17.066Z,1.88
2022-10-24T13:56:47.751Z,2.42
2022-10-24T13:59:36.683Z,2.30
2022-10-24T14:02:08.091Z,2.80
2022-10-24T14:04:39.683Z,1.80
2022-10-24T14:07:09.946Z,2.70
2022-10-24T14:09:42.943Z,2.22
2022-10-24T14:12:19.800Z,2.17
2022-10-24T14:14:50.733Z,1.80
2022-10-24T14:17:23.552Z,1.92
2022-10-24T14:19:58.357Z,1.73
2022-10-24T14:22:29.203Z,2.08
2022-10-24T14:24:57.471Z,2.00
2022-10-24T14:27:26.527Z,2.85
2022-10-24T14:30:02.972Z,1.80
2022-10-24T14:32:32.331Z,1.73
2022-10-24T14:35:03.169Z,1.70
2022-10-24T14:37:37.587Z,1.70
2022-10-24T14:40:06.749Z,2.20
2022-10-24T14:42:35.182Z,2.72
2022-10-24T14:45:03.158Z,1.88
2022-10-24T14:47:34.081Z,1.88
2022-10-24T14:50:03.540Z,2.00
2022-10-24T14:52:36.608Z,2.33
2022-10-24T14:55:07.103Z,2.33
2022-10-24T14:57:37.705Z,2.63
2022-10-24T15:00:08.870Z,2.30
2022-10-24T15:02:42.908Z,2.72
2022-10-24T15:05:31.239Z,3.30
2022-10-24T15:08:22.817Z,2.63
2022-10-24T15:11:03.526Z,2.55
2022-10-24T15:13:33.461Z,3.13
2022-10-24T15:16:02.249Z,3.05
2022-10-24T15:18:32.031Z,3.15
2022-10-24T15:21:07.095Z,2.67
2022-10-24T15:23:37.171Z,2.58
2022-10-24T15:26:10.411Z,2.17
2022-10-24T15:28:45.510Z,2.90
2022-10-24T15:31:14.839Z,5.22
2022-10-24T15:33:43.427Z,3.15
2022-10-24T15:36:20.627Z,6.15
2022-10-24T15:38:49.479Z,4.47
2022-10-24T15:41:17.578Z,4.90
2022-10-24T15:43:45.657Z,5.03
2022-10-24T15:46:13.619Z,5.05
2022-10-24T15:48:44.157Z,4.05
2022-10-24T15:51:17.885Z,4.25
2022-10-24T15:53:46.411Z,4.45
2022-10-24T15:56:14.582Z,4.60
2022-10-24T15:58:45.824Z,4.72
2022-10-24T16:01:29.901Z,4.38
2022-10-24T16:03:59.071Z,4.28
2022-10-24T16:06:28.916Z,5.57
2022-10-24T16:08:57.463Z,6.43
2022-10-24T16:11:25.438Z,6.20
2022-10-24T16:13:53.776Z,5.13
2022-10-24T16:16:21.719Z,3.92
2022-10-24T16:18:49.799Z,4.57
2022-10-24T16:21:19.821Z,5.38
2022-10-24T16:26:18.789Z,6.78
2022-10-24T16:28:46.823Z,6.53
2022-10-24T16:31:18.943Z,6.63
2022-10-24T16:33:46.994Z,7.07
2022-10-24T16:36:19.515Z,11.75
2022-10-24T16:38:52.067Z,10.38
2022-10-24T16:41:22.152Z,13.50
2022-10-24T16:43:51.027Z,17.38
2022-10-24T16:46:20.884Z,18.90
2022-10-24T16:48:49.374Z,20.30
2022-10-24T16:51:20.751Z,17.42
2022-10-24T16:53:48.727Z,18.90
2022-10-24T16:56:18.175Z,16.20
2022-10-24T16:58:46.358Z,11.05
2022-10-24T17:01:15.826Z,9.23
2022-10-24T17:03:44.771Z,5.90
2022-10-24T17:06:13.543Z,4.32
2022-10-24T17:08:43.295Z,3.13
2022-10-24T17:11:39.341Z,7.35
2022-10-24T17:14:01.584Z,4.43
2022-10-24T17:16:29.664Z,6.05
2022-10-24T17:19:12.579Z,7.68
2022-10-24T17:21:43.901Z,9.00
2022-10-24T17:24:12.932Z,8.38
2022-10-24T17:26:42.046Z,19.48
2022-10-24T17:29:15.891Z,14.30
2022-10-24T17:31:44.087Z,13.02
2022-10-24T17:34:12.257Z,11.73
2022-10-24T17:36:41.081Z,11.52
2022-10-24T17:39:14.359Z,11.60
2022-10-24T17:41:44.171Z,11.95
2022-10-24T17:44:16.724Z,11.18
2022-10-24T17:46:45.072Z,11.02
2022-10-24T17:49:20.753Z,12.20
2022-10-24T17:51:50.102Z,10.52
2022-10-24T17:54:18.590Z,11.35
2022-10-24T17:56:46.592Z,9.35
2022-10-24T17:59:17.000Z,10.95
2022-10-24T18:01:45.199Z,10.40
2022-10-24T18:04:14.469Z,10.45
2022-10-24T18:06:43.450Z,8.23
2022-10-24T18:09:12.150Z,8.18
2022-10-24T18:11:43.228Z,8.88
2022-10-24T18:14:11.218Z,8.02
2022-10-24T18:16:40.724Z,9.45
2022-10-24T18:19:09.020Z,9.40
2022-10-24T18:21:37.215Z,7.70
2022-10-24T18:24:08.373Z,10.25
2022-10-24T18:26:36.296Z,8.93
2022-10-24T18:29:04.907Z,8.13
2022-10-24T18:31:33.983Z,7.72
2022-10-24T18:34:06.340Z,7.60
2022-10-24T18:36:37.724Z,7.68
2022-10-24T18:39:06.775Z,7.55
2022-10-24T18:41:47.619Z,8.73
2022-10-24T18:44:27.151Z,15.18
2022-10-24T18:46:57.588Z,15.95
2022-10-24T18:49:27.311Z,12.98
2022-10-24T18:52:12.116Z,12.93
2022-10-24T18:54:46.261Z,14.60
2022-10-24T18:57:22.823Z,11.32
2022-10-24T18:59:51.370Z,12.48
2022-10-24T19:02:28.835Z,10.80
2022-10-24T19:05:13.394Z,10.75
2022-10-24T19:07:41.741Z,10.73
2022-10-24T19:10:16.663Z,9.45
2022-10-24T19:12:45.239Z,10.35
2022-10-24T19:15:14.786Z,7.38
2022-10-24T19:17:43.258Z,8.00
2022-10-24T19:20:21.323Z,7.75
2022-10-24T19:22:49.978Z,5.35
2022-10-24T19:25:19.242Z,5.43
2022-10-24T19:27:49.264Z,6.35
2022-10-24T19:30:17.298Z,8.52
2022-10-24T19:32:45.577Z,11.18
2022-10-24T19:35:13.660Z,11.18
2022-10-24T19:37:43.463Z,6.13
2022-10-24T19:40:12.026Z,6.15
2022-10-24T19:42:39.964Z,6.18
2022-10-24T19:45:08.991Z,5.63
2022-10-24T19:47:37.001Z,5.53
2022-10-24T19:50:05.480Z,5.72
2022-10-24T19:52:33.400Z,4.95
2022-10-24T19:55:03.037Z,5.38
2022-10-24T19:57:31.138Z,8.93
2022-10-24T19:59:59.132Z,10.50
2022-10-24T20:02:28.216Z,12.80
2022-10-24T20:04:56.144Z,12.35
2022-10-24T20:07:24.092Z,14.20
2022-10-24T20:09:52.016Z,11.52
2022-10-24T20:12:21.346Z,12.27
2022-10-24T20:14:49.249Z,11.88
2022-10-24T20:17:17.216Z,12.50
2022-10-24T20:19:45.245Z,12.57
2022-10-24T20:22:13.214Z,13.23
2022-10-24T20:24:42.344Z,13.35
2022-10-24T20:27:10.293Z,15.07
2022-10-24T20:29:39.592Z,11.68
2022-10-24T20:32:07.650Z,10.07
2022-10-24T20:34:35.994Z,9.32
2022-10-24T20:37:04.002Z,7.80
2022-10-24T20:39:31.990Z,7.88
2022-10-24T20:41:59.958Z,6.72
2022-10-24T20:44:28.023Z,6.43
2022-10-24T20:46:58.988Z,6.32
2022-10-24T20:49:27.414Z,7.10
2022-10-24T20:51:55.356Z,5.53
2022-10-24T20:54:23.328Z,6.40
2022-10-24T20:56:51.307Z,6.25
2022-10-24T20:59:19.294Z,7.22
2022-10-24T21:01:47.334Z,4.82
2022-10-24T21:04:19.937Z,6.57
2022-10-24T21:06:49.060Z,7.43
2022-10-24T21:09:17.041Z,8.10
2022-10-24T21:11:45.014Z,8.38
2022-10-24T21:14:14.103Z,8.27
2022-10-24T21:16:42.051Z,8.25
2022-10-24T21:19:09.971Z,8.30
2022-10-24T21:21:39.815Z,8.13
2022-10-24T21:24:08.395Z,8.00
2022-10-24T21:26:38.336Z,7.45
2022-10-24T21:29:31.625Z,7.50
2022-10-24T21:31:54.851Z,7.75
2022-10-24T21:34:23.447Z,6.55
2022-10-24T21:36:52.723Z,6.45
2022-10-24T21:39:20.660Z,6.97
2022-10-24T21:41:48.623Z,6.88
2022-10-24T21:44:16.611Z,8.02
2022-10-24T21:46:44.639Z,6.85
2022-10-24T21:49:12.601Z,6.65
2022-10-24T21:51:41.300Z,7.25
2022-10-24T21:54:18.286Z,7.00
2022-10-24T21:56:46.437Z,6.95
2022-10-24T21:59:16.399Z,6.15
2022-10-24T22:01:46.313Z,6.65
2022-10-24T22:04:15.824Z,6.70
2022-10-24T22:06:44.781Z,6.65
2022-10-24T22:09:16.604Z,5.40
2022-10-24T22:11:45.398Z,6.70
2022-10-24T22:14:15.417Z,5.32
2022-10-24T22:16:44.078Z,5.72
2022-10-24T22:19:13.211Z,5.72
2022-10-24T22:21:43.412Z,7.45
2022-10-24T22:24:14.829Z,7.28
2022-10-24T22:26:43.670Z,6.43
2022-10-24T22:29:13.767Z,5.47
2022-10-24T22:31:45.497Z,5.25
2022-10-24T22:34:17.403Z,5.35
2022-10-24T22:37:06.273Z,5.68
2022-10-24T22:39:36.250Z,4.95
2022-10-24T22:42:06.087Z,4.88
2022-10-24T22:44:34.796Z,5.50
2022-10-24T22:47:39.080Z,7.45
2022-10-24T22:50:21.408Z,6.03
2022-10-24T22:52:49.801Z,8.07
2022-10-24T22:55:34.218Z,7.35
2022-10-24T22:58:02.782Z,7.70
2022-10-24T23:00:31.552Z,8.68
2022-10-24T23:03:09.296Z,9.73
2022-10-24T23:05:44.523Z,6.93
2022-10-24T23:08:23.304Z,8.63
2022-10-24T23:10:56.178Z,6.40
2022-10-24T23:13:24.592Z,7.57
2022-10-24T23:15:55.364Z,7.72
2022-10-24T23:18:23.763Z,9.73
2022-10-24T23:21:02.500Z,8.13
2022-10-24T23:23:30.674Z,7.97
2022-10-24T23:26:08.735Z,7.72
2022-10-24T23:28:43.807Z,8.07
2022-10-24T23:31:12.431Z,7.50
2022-10-24T23:33:41.268Z,7.60
2022-10-24T23:36:16.141Z,8.05
2022-10-24T23:38:44.522Z,8.20
2022-10-24T23:41:14.396Z,7.50
2022-10-24T23:43:42.795Z,5.85
2022-10-24T23:46:21.844Z,6.97
2022-10-24T23:49:02.431Z,6.70
2022-10-24T23:51:35.274Z,6.70
2022-10-24T23:54:03.665Z,6.95
2022-10-24T23:56:33.775Z,7.88
2022-10-24T23:59:04.321Z,7.32
